Saturday, April 19, 2014
17:09 UTC
  |  Log In   |  Register Free
Airport Search:

South Big Horn County Airport
(KGEY)

South Big Horn County Airport Diagram
No Airport Diagram Available

FAA data valid effective April 3, 2014 until May 29, 2014 (unless otherwise noted).

 
 
 
 
 
 
 
 
 
 
 
 
 
 

Current Aviation Weather for South Big Horn County Airport (KGEY)

The most recent METAR observation for KGEY was updated at: 1653 UTC
METAR Summary (Translated METAR)
KGEY
191653Z AUTO 13003KT 10SM CLR 11/M02 A3000 RMK AO2 SLP154 T01061017
KWRL
(33.8 nm SE from KGEY)
191653Z AUTO 34003KT 10SM CLR 11/M01 A3000 RMK AO2 SLP155 T01061011
TAF Summary (Translated TAF)
KWRL
(33.8 nm SE from KGEY)
191124Z 1912/2012 13006KT P6SM SCT250 FM192300 03007KT P6SM SCT250 FM200400 VRB05KT P6SM SCT250
KCOD
(40.3 nm NW from KGEY)
191124Z 1912/2012 VRB05KT P6SM SCT250 FM191700 21011KT P6SM FEW120 SCT250 AMD LTD TO CLD VIS AND WIND
  Airport Weather Conditions for KGEY

Current weather conditions are
not available for GEY


The nearest NOAA weather station
is at WRL, (33.8 nm SE from GEY)
  
 Current Weather at WRL
48° F
Fair
North winds at 0.0 mph
WRL NOAA Radar

Pressure: 30.01 in
Humidity: 52%
Wind: Calm
Dew Point: 30.9°F
Visibility: 10.00 mi


Airport Weather Forecast for KGEY

Translated METAR and TAF for KGEY
Translated METAR for KGEY (1709 UTC 19 April 2014)
found at http://aviationweather.gov/adds/metars/
 
METAR text: KGEY 191653Z AUTO 13003KT 10SM CLR 11/M02 A3000 RMK AO2 SLP154 T01061017
Conditions at: KGEY (GREYBULL , WY, US) observed 1653 UTC 19 April 2014
Temperature: 10.6°C (51°F)
Dewpoint: -1.7°C (29°F) [RH = 42%]
Pressure (altimeter): 30.00 inches Hg (1016.0 mb)
[Sea-level pressure: 1015.4 mb]
Winds: from the SE (130 degrees) at 3 MPH (3 knots; 1.6 m/s)
Visibility: 10 or more miles (16+ km)
Ceiling: at least 12,000 feet AGL
Clouds: sky clear below 12,000 feet AGL
Weather: automated observation with no human augmentation;
there may or may not be significant weather present at this time
Translated TAF for KGEY

There is no translated TAF available for this airport

Find All Airport Services Find A Hotel Find A Rental Car Find A Golf Course Find A Restaurant $100 Hamburger



FBO's on the Field
FBO Company Facility Photos Services Transportation Aviation Fuel Prices: Prices include tax
Catering Weather Repair Courtesy Rental Type 100LL JetA JetA+ MOGAS 8087
 
B & G Industries, LLC

This FBO has not yet been rated
FS:Independent
Last Updated: Mar-24
Login to update fuel prices
SS:
Contact B & G Industries, LLCMore FBO Information
 
South Big Horn County Airport

This FBO has not yet been rated
FS:Independent
Last Updated: Apr-04
Login to update fuel prices
SS:
Contact South Big Horn County AirportMore FBO Information
 
Add another FBO Facility Photos Catering Weather Repair Courtesy Rental Type 100LL JetA JetA+ MOGAS 8087
Services Transportation Aviation Fuel Prices: Prices include tax


GlobalAir.com Airport Resource Center model-print
model-print
model-print
model-print